This is the latest recevied weather packets stored in our database for station/object K9RCP-20. If no packets are shown the sender has not sent any weather packets the latest 10 day(s).
| Time | Temp. | Humidity | Pressure | Rain* | Wind** | Luminosity | Snow |
|---|---|---|---|---|---|---|---|
| 1778384936 | 21.67° C | 45% | 1012 hPa | 0 mm | - | 0 W/m² | - |
| 1778384635 | 21.67° C | 46% | 1012 hPa | 0 mm | - | 0 W/m² | - |
| 1778384331 | 21.67° C | 45% | 1011.8 hPa | 0 mm | - | 1 W/m² | - |
| 1778384028 | 22.22° C | 45% | 1011.9 hPa | 0 mm | - | 1 W/m² | - |
| 1778383724 | 22.22° C | 44% | 1011.8 hPa | 0 mm | - | 2 W/m² | - |
| 1778383421 | 22.22° C | 44% | 1011.9 hPa | 0 mm | - | 4 W/m² | - |
| 1778383117 | 22.78° C | 44% | 1011.7 hPa | 0 mm | - | 5 W/m² | - |
| 1778382812 | 22.78° C | 44% | 1011.6 hPa | 0 mm | - | 8 W/m² | - |
| 1778382512 | 23.33° C | 44% | 1011.6 hPa | 0 mm | - | 10 W/m² | - |
| 1778382209 | 23.33° C | 43% | 1011.7 hPa | 0 mm | - | 14 W/m² | - |
| 1778381906 | 23.33° C | 42% | 1011.7 hPa | 0 mm | - | 17 W/m² | - |
| 1778381603 | 23.89° C | 41% | 1011.4 hPa | 0 mm | - | 19 W/m² | - |
| 1778381300 | 24.44° C | 39% | 1011.3 hPa | 0 mm | - | 24 W/m² | - |
| 1778380997 | 25° C | 37% | 1011.4 hPa | 0 mm | - | 28 W/m² | - |
| 1778380693 | 25.56° C | 33% | 1011.5 hPa | 0 mm | - | 35 W/m² | - |
| 1778380390 | 25.56° C | 32% | 1011.3 hPa | 0 mm | - | 42 W/m² | - |
| 1778380087 | 26.11° C | 30% | 1011.6 hPa | 0 mm | - | 48 W/m² | - |
| 1778379786 | 26.67° C | 28% | 1011.6 hPa | 0 mm | - | 60 W/m² | - |
| 1778379485 | 26.67° C | 28% | 1011.4 hPa | 0 mm | - | 76 W/m² | - |
| 1778379184 | 26.67° C | 27% | 1011.4 hPa | 0 mm | - | 84 W/m² | - |
| 1778378880 | 26.67° C | 27% | 1011.4 hPa | 0 mm | - | 101 W/m² | - |
| 1778378579 | 26.11° C | 29% | 1011.5 hPa | 0 mm | - | 99 W/m² | - |
| 1778378276 | 26.11° C | 30% | 1011.6 hPa | 0 mm | - | 78 W/m² | - |
| 1778377972 | 26.67° C | 29% | 1011.6 hPa | 0 mm | - | 88 W/m² | - |
| 1778377667 | 26.67° C | 28% | 1011.7 hPa | 0 mm | - | 90 W/m² | - |
* Rain latest hour (hover to see other rain measurements)
** Current wind speed in m/s (hover to see current wind gust speed)